Archival Weather

Norman Y Mineta San Jose Intl

San Jose, California (KSJC)

Report from: Saturday, February 17, 2024 9:53 PM PST
Current time: Friday, June 21, 2024 12:20 AM PDT

Current weather – Weather history – Daily summaries
Weather forecast

Present weatherLight rain, mist
Temperature12.2°C (54.0°F)
Dew point10.6°C (51.1°F)
Winds 10 kts (5.1 m/s, 11.5 mph) Southeast (140°)
Visibility2 mi. (3.2 km)
Clouds Few clouds 1,400 ft. (427 m)
Ceiling: Broken clouds 2,200 ft. (671 m)
Overcast 3,000 ft. (914 m)
Altimeter29.96 in.Hg (1015 mB)
Precipitiation0.06 in. (2 mm)
Precip last 3 hours0.12 in. (3 mm)
Relative humidity90 %
Density altitude-192 ft. (-59 m)
Sea-level pressure101.4 kPa (1014 mB, 29.96 in.Hg)
Max temp last 6 hours15.0°C (59.0°F)
Min temp last 6 hours12.2°C (54.0°F)
Remarks Automated weather observing station with precipitation discriminator
Pressure rising more slowly
Flight conditions Instrument Meteorological Conditions
Raw dataKSJC 180553Z 14010KT 2SM -RA BR FEW014 BKN022 OVC030 12/11 A2996 RMK AO2 SLP144 P0006 60012 T01220106 10150 20122 51025
An error has occurred. This application may no longer respond until reloaded. Reload 🗙